Time;durP1;ratioP1;P1;durP2;ratioP2;P2;SDS_P1;SDS_P2;PMS_P1;PMS_P2;Temp;Humidity;BMP_temperature;BMP_pressure;BME280_temperature;BME280_humidity;BME280_pressure;Samples;Min_cycle;Max_cycle;Signal;HPM_P1;HPM_P2
2022/01/26 00:06:36;;;;;;;;;35.50;31.25;;;;;3.14;69.55;102637.72;5075682;28;45770;-47
2022/01/26 00:09:03;;;;;;;;;39.25;32.25;;;;;3.26;69.58;102643.25;5075969;27;45309;-52
2022/01/26 00:11:31;;;;;;;;;38.25;36.75;;;;;3.26;70.01;102645.00;5076024;27;45515;-47
2022/01/26 00:13:58;;;;;;;;;40.50;33.50;;;;;3.00;70.37;102639.91;5074724;28;45578;-47
2022/01/26 00:16:27;;;;;;;;;42.00;39.00;;;;;2.95;70.09;102658.81;5075858;27;45502;-46
2022/01/26 00:18:58;;;;;;;;;36.00;32.75;;;;;2.93;69.89;102653.59;5074570;28;45393;-46
2022/01/26 00:29:12;;;;;;;;;40.50;36.75;;;;;3.02;70.04;102650.38;5075596;27;45405;-46
2022/01/26 00:40:08;;;;;;;;;42.25;40.75;;;;;3.05;69.60;102661.72;5075537;28;45384;-45
2022/01/26 00:42:38;;;;;;;;;43.75;39.00;;;;;2.96;69.58;102645.00;5075789;27;45436;-48
2022/01/26 00:45:05;;;;;;;;;47.00;40.25;;;;;3.09;69.83;102653.19;5075210;27;45627;-43
2022/01/26 00:47:31;;;;;;;;;43.00;39.25;;;;;3.07;69.81;102654.88;5075324;28;46854;-44
2022/01/26 00:50:01;;;;;;;;;41.25;33.50;;;;;3.15;69.71;102655.09;5075578;27;45402;-48
2022/01/26 00:52:37;;;;;;;;;41.75;37.50;;;;;3.25;69.80;102651.91;5075648;27;45476;-46
2022/01/26 00:55:04;;;;;;;;;30.50;29.25;;;;;3.32;68.60;102647.75;5074080;28;45593;-49
2022/01/26 00:57:29;;;;;;;;;44.50;38.00;;;;;3.30;68.91;102650.31;5075232;28;45403;-47
2022/01/26 00:59:55;;;;;;;;;48.25;44.00;;;;;3.33;69.10;102654.69;5075402;27;45470;-48
2022/01/26 01:02:21;;;;;;;;;45.50;41.00;;;;;3.31;68.66;102648.59;5075135;27;45641;-49
2022/01/26 01:04:46;;;;;;;;;48.25;42.25;;;;;3.31;68.40;102646.88;5075415;27;45562;-48
2022/01/26 01:07:17;;;;;;;;;40.25;40.25;;;;;3.24;68.98;102657.06;5075172;27;45479;-44
2022/01/26 01:09:43;;;;;;;;;40.75;34.00;;;;;3.30;68.84;102652.03;5075213;27;45464;-47
2022/01/26 01:12:09;;;;;;;;;41.25;34.00;;;;;3.37;68.53;102653.09;5075164;27;45347;-46
2022/01/26 01:14:37;;;;;;;;;32.75;30.50;;;;;3.37;68.87;102650.50;5077837;27;45402;-48
2022/01/26 01:17:05;;;;;;;;;40.25;36.25;;;;;3.37;69.20;102651.38;5078389;27;46224;-45
2022/01/26 01:19:46;;;;;;;;;43.00;39.00;;;;;3.32;68.95;102643.44;5078549;27;45494;-48
2022/01/26 01:27:55;;;;;;;;;39.75;37.50;;;;;3.47;68.57;102642.97;5078533;27;45357;-53
2022/01/26 01:30:29;;;;;;;;;39.25;37.50;;;;;3.48;67.95;102649.94;5077211;28;46013;-49
2022/01/26 01:33:06;;;;;;;;;22.25;20.75;;;;;3.44;68.69;102652.41;5078798;27;45352;-50
2022/01/26 01:35:35;;;;;;;;;40.25;34.75;;;;;3.41;67.66;102654.91;5077138;28;45559;-48
2022/01/26 01:38:08;;;;;;;;;33.50;30.75;;;;;3.33;68.17;102646.91;5078463;27;46134;-47
2022/01/26 01:40:35;;;;;;;;;41.75;33.75;;;;;3.32;68.15;102647.75;5076807;28;45459;-48
2022/01/26 01:43:01;;;;;;;;;32.50;28.75;;;;;3.32;67.73;102637.34;5078213;27;45536;-49
2022/01/26 01:45:34;;;;;;;;;42.50;33.00;;;;;3.42;68.19;102641.09;5078186;27;45494;-47
2022/01/26 01:48:00;;;;;;;;;35.00;33.75;;;;;3.44;68.13;102642.91;5077865;27;45557;-46
2022/01/26 01:50:26;;;;;;;;;37.00;36.50;;;;;3.46;67.53;102649.00;5060006;28;45454;-47
2022/01/26 01:52:58;;;;;;;;;47.50;40.00;;;;;3.46;67.57;102662.00;5076886;28;45451;-49
2022/01/26 01:55:26;;;;;;;;;40.75;37.75;;;;;3.49;68.05;102662.13;5057740;28;45442;-47
2022/01/26 01:57:52;;;;;;;;;34.00;30.75;;;;;3.43;67.91;102651.53;5057606;28;46383;-46
2022/01/26 02:00:17;;;;;;;;;34.75;29.25;;;;;3.45;67.44;102656.78;5057706;28;45445;-46
2022/01/26 02:02:42;;;;;;;;;42.75;36.50;;;;;3.41;67.96;102676.63;5075059;28;45394;-48
2022/01/26 02:05:08;;;;;;;;;42.75;34.75;;;;;3.33;67.49;102667.69;5077679;27;45496;-47
2022/01/26 02:07:33;;;;;;;;;36.00;33.00;;;;;3.26;67.57;102658.00;5077703;27;46435;-46
2022/01/26 02:09:59;;;;;;;;;38.50;32.00;;;;;3.20;67.78;102655.22;5077682;27;45427;-50
2022/01/26 02:12:26;;;;;;;;;38.50;34.25;;;;;3.30;68.33;102667.63;5077799;27;45851;-50
2022/01/26 02:15:03;;;;;;;;;42.75;33.25;;;;;3.33;68.12;102659.91;5077624;27;45583;-48
2022/01/26 02:50:31;;;;;;;;;34.75;33.50;;;;;3.45;67.72;102669.78;5076959;28;45805;-47
2022/01/26 02:55:44;;;;;;;;;31.25;25.00;;;;;3.43;67.16;102659.31;5077149;27;45453;-46
2022/01/26 03:04:27;;;;;;;;;33.00;31.75;;;;;3.49;67.34;102659.50;5060496;27;45544;-47
2022/01/26 03:06:50;;;;;;;;;39.00;30.00;;;;;3.53;66.77;102656.13;5074424;28;45555;-45
2022/01/26 03:09:21;;;;;;;;;41.00;37.25;;;;;3.50;66.74;102660.38;5076993;27;45547;-48
2022/01/26 03:11:47;;;;;;;;;38.00;30.00;;;;;3.42;66.50;102654.09;5076688;28;45507;-51
2022/01/26 03:15:18;;;;;;;;;41.75;31.00;;;;;3.45;66.34;102643.78;5076380;27;45419;-48
2022/01/26 03:18:14;;;;;;;;;33.50;32.00;;;;;3.38;66.93;102649.63;5058957;28;45527;-48
2022/01/26 03:19:57;;;;;;;;;42.25;34.75;;;;;3.36;66.44;102647.00;5062294;28;45577;-47
2022/01/26 03:35:17;;;;;;;;;35.75;31.75;;;;;3.49;66.68;102645.59;5076577;27;45446;-47
2022/01/26 03:37:52;;;;;;;;;38.25;32.75;;;;;3.45;66.65;102634.25;5075486;27;45436;-48
2022/01/26 03:40:18;;;;;;;;;40.25;32.50;;;;;3.53;67.10;102639.66;5074816;28;45436;-46
2022/01/26 03:42:44;;;;;;;;;39.00;34.75;;;;;3.52;66.93;102632.69;5074961;28;48564;-46
2022/01/26 03:45:09;;;;;;;;;37.75;34.25;;;;;3.57;66.63;102636.28;5076207;27;45467;-49
2022/01/26 03:47:35;;;;;;;;;32.75;30.50;;;;;3.57;66.24;102635.41;5076282;27;45480;-48
2022/01/26 03:50:00;;;;;;;;;38.50;32.75;;;;;3.59;66.12;102624.19;5076255;27;45503;-45
2022/01/26 03:52:25;;;;;;;;;35.50;33.50;;;;;3.62;66.31;102634.69;5075670;27;45549;-47
2022/01/26 03:54:50;;;;;;;;;39.25;31.00;;;;;3.54;66.80;102625.78;5076143;27;45520;-50
2022/01/26 03:57:16;;;;;;;;;38.00;37.00;;;;;3.61;66.31;102643.34;5076332;27;45357;-49
2022/01/26 03:59:41;;;;;;;;;34.25;33.75;;;;;3.61;66.41;102645.06;5075006;28;45402;-47
2022/01/26 04:02:07;;;;;;;;;32.25;29.75;;;;;3.63;66.44;102648.59;5076076;27;46058;-46
2022/01/26 04:04:39;;;;;;;;;33.00;27.25;;;;;3.49;66.26;102636.09;5075884;28;45321;-45
2022/01/26 04:07:05;;;;;;;;;31.25;30.50;;;;;3.56;66.32;102649.25;5054561;28;45417;-47
2022/01/26 04:09:30;;;;;;;;;36.00;33.75;;;;;3.52;66.58;102632.69;5055784;28;46163;-46
2022/01/26 04:11:55;;;;;;;;;40.50;34.75;;;;;3.62;66.86;102634.69;5055767;28;45485;-48
2022/01/26 04:14:26;;;;;;;;;41.25;35.75;;;;;3.67;66.37;102643.47;5055701;28;45490;-47
2022/01/26 04:16:51;;;;;;;;;35.25;31.75;;;;;3.68;66.21;102639.16;5055931;28;45457;-46
2022/01/26 04:19:17;;;;;;;;;42.25;34.00;;;;;3.55;66.94;102624.97;5055622;28;45549;-47
2022/01/26 04:26:48;;;;;;;;;47.25;41.50;;;;;3.75;66.63;102626.34;5075982;28;45420;-49
2022/01/26 04:29:21;;;;;;;;;49.00;40.50;;;;;3.71;66.26;102629.72;5069992;28;45415;-48
2022/01/26 04:31:46;;;;;;;;;46.00;38.00;;;;;3.74;66.16;102634.13;5055602;28;46519;-50
2022/01/26 04:34:11;;;;;;;;;47.25;40.50;;;;;3.79;66.19;102632.53;5055559;28;45377;-47
2022/01/26 04:36:44;;;;;;;;;42.75;40.75;;;;;3.83;66.28;102631.75;5055686;28;45797;-48
2022/01/26 04:39:14;;;;;;;;;46.50;37.25;;;;;3.87;66.35;102637.91;5055717;28;45425;-51
2022/01/26 04:41:49;;;;;;;;;52.75;44.25;;;;;3.87;66.36;102627.50;5055096;28;46220;-49
2022/01/26 04:44:27;;;;;;;;;52.25;42.50;;;;;3.85;65.03;102626.59;5056499;28;45505;-46
2022/01/26 04:46:53;;;;;;;;;49.25;43.00;;;;;3.89;65.78;102623.22;5055558;28;45340;-45
2022/01/26 04:49:19;;;;;;;;;45.25;41.75;;;;;3.88;65.32;102624.06;5057699;28;45398;-45
2022/01/26 04:51:45;;;;;;;;;54.75;43.25;;;;;3.88;64.66;102618.84;5058825;28;45533;-47
2022/01/26 04:54:11;;;;;;;;;48.75;41.25;;;;;3.89;64.81;102621.47;5068087;28;45524;-47
2022/01/26 04:56:36;;;;;;;;;45.25;40.50;;;;;3.94;65.00;102632.03;5079153;27;45466;-46
2022/01/26 04:59:02;;;;;;;;;45.75;40.25;;;;;3.95;65.22;102629.47;5079177;27;45592;-48
2022/01/26 05:01:28;;;;;;;;;57.75;46.25;;;;;4.01;64.56;102633.06;5078803;28;46200;-49
2022/01/26 05:03:53;;;;;;;;;52.75;44.75;;;;;3.97;64.14;102619.06;5078753;27;45350;-44
2022/01/26 05:06:19;;;;;;;;;56.00;46.00;;;;;3.92;65.46;102616.38;5079078;27;45403;-48
2022/01/26 05:08:44;;;;;;;;;56.75;45.00;;;;;3.97;65.61;102621.69;5070922;28;45504;-46
2022/01/26 05:11:13;;;;;;;;;55.25;44.25;;;;;3.97;64.89;102622.56;5058488;28;46203;-49
2022/01/26 05:13:38;;;;;;;;;48.50;43.25;;;;;3.98;64.78;102626.06;5058495;28;45416;-47
2022/01/26 05:16:06;;;;;;;;;47.25;41.00;;;;;4.02;64.71;102621.78;5058610;28;45484;-49
2022/01/26 05:18:33;;;;;;;;;51.00;43.75;;;;;4.06;64.75;102610.63;5059465;28;45525;-50
2022/01/26 05:20:58;;;;;;;;;54.25;41.00;;;;;4.04;63.90;102607.09;5076701;27;45605;-48
2022/01/26 05:23:23;;;;;;;;;51.00;43.25;;;;;4.09;64.44;102626.31;5078466;28;45369;-50
2022/01/26 05:25:49;;;;;;;;;53.25;43.50;;;;;4.05;63.97;102619.25;5078679;28;45388;-47
2022/01/26 05:28:14;;;;;;;;;41.75;38.25;;;;;4.04;64.74;102610.56;5078659;27;45349;-45
2022/01/26 05:30:39;;;;;;;;;48.25;42.75;;;;;4.05;64.27;102611.44;5077573;27;45383;-46
2022/01/26 05:33:05;;;;;;;;;56.50;47.75;;;;;4.08;63.66;102611.53;5078561;28;45379;-45
2022/01/26 05:35:31;;;;;;;;;60.25;46.50;;;;;4.06;63.80;102602.81;5076215;27;46048;-47
2022/01/26 05:37:56;;;;;;;;;44.50;38.00;;;;;4.09;64.26;102610.69;5058166;28;45519;-49
2022/01/26 05:40:22;;;;;;;;;58.25;44.75;;;;;4.10;64.16;102602.91;5056600;28;45735;-48
2022/01/26 05:42:48;;;;;;;;;47.00;41.25;;;;;4.13;63.94;102602.97;5057920;28;45444;-49
2022/01/26 05:45:29;;;;;;;;;56.25;44.25;;;;;4.15;63.81;102597.81;5057995;28;45940;-47
2022/01/26 05:47:54;;;;;;;;;60.25;46.25;;;;;4.06;63.95;102579.38;5062752;28;45452;-49
2022/01/26 05:50:21;;;;;;;;;57.50;45.25;;;;;4.17;63.16;102598.72;5057945;28;45360;-50
2022/01/26 05:52:46;;;;;;;;;54.50;44.00;;;;;4.10;63.98;102597.69;5058034;28;45563;-49
2022/01/26 05:55:12;;;;;;;;;52.75;44.25;;;;;4.09;63.55;102593.34;5058018;28;45536;-45
2022/01/26 05:57:37;;;;;;;;;45.50;41.75;;;;;4.08;64.09;102601.09;5058044;28;45495;-49
2022/01/26 06:00:05;;;;;;;;;53.75;43.25;;;;;4.07;64.03;102601.97;5056639;28;45503;-47
2022/01/26 06:02:32;;;;;;;;;49.25;43.50;;;;;4.13;64.02;102591.69;5072241;28;45442;-47
2022/01/26 06:04:57;;;;;;;;;51.75;43.25;;;;;4.15;64.09;102590.00;5077928;27;45393;-48
2022/01/26 06:07:23;;;;;;;;;58.25;46.75;;;;;4.10;64.17;102592.50;5078175;28;45580;-48
2022/01/26 06:09:48;;;;;;;;;57.50;47.25;;;;;4.16;64.11;102604.75;5065310;27;51881;-47
2022/01/26 06:12:13;;;;;;;;;61.75;49.00;;;;;4.19;63.48;102604.84;5057746;28;45348;-46
2022/01/26 06:14:39;;;;;;;;;53.25;46.25;;;;;4.18;63.47;102601.34;5057639;28;45323;-49
2022/01/26 06:17:04;;;;;;;;;57.00;48.00;;;;;4.05;63.76;102606.25;5057412;28;45683;-48
2022/01/26 06:19:29;;;;;;;;;62.00;51.50;;;;;4.05;64.18;102612.31;5056997;28;46606;-46
2022/01/26 06:21:54;;;;;;;;;65.00;51.00;;;;;4.00;63.70;102619.16;5057285;28;45399;-47
2022/01/26 06:24:20;;;;;;;;;62.75;49.75;;;;;3.97;63.60;102630.34;5066479;28;45413;-49
2022/01/26 06:26:45;;;;;;;;;64.00;51.25;;;;;3.98;64.01;102628.66;5076901;27;45416;-49
2022/01/26 06:29:10;;;;;;;;;61.50;48.50;;;;;4.03;64.07;102637.47;5057095;27;45375;-46
2022/01/26 06:31:39;;;;;;;;;58.25;49.00;;;;;3.99;63.49;102640.81;5057290;28;45330;-50
2022/01/26 06:34:09;;;;;;;;;59.00;47.50;;;;;4.05;64.19;102656.59;5057205;28;45463;-46
2022/01/26 06:36:36;;;;;;;;;60.00;50.00;;;;;4.07;62.67;102661.84;5055895;28;45451;-47
2022/01/26 06:39:01;;;;;;;;;58.75;48.00;;;;;3.97;63.51;102656.41;5057037;28;46941;-46
2022/01/26 06:41:27;;;;;;;;;62.00;50.75;;;;;4.04;63.56;102669.59;5056892;28;45432;-48
2022/01/26 06:44:12;;;;;;;;;60.25;48.75;;;;;4.03;64.37;102671.31;5076298;28;45657;-46
2022/01/26 06:49:29;;;;;;;;;62.75;48.00;;;;;3.96;63.97;102664.19;5045609;27;45545;-46
2022/01/26 06:51:55;;;;;;;;;52.50;44.00;;;;;4.02;63.82;102677.34;5077195;28;45346;-46
2022/01/26 06:54:21;;;;;;;;;66.75;54.25;;;;;4.05;63.76;102687.84;5064217;27;45514;-44
2022/01/26 06:56:47;;;;;;;;;62.50;49.25;;;;;4.10;63.59;102690.56;5056947;28;45442;-47
2022/01/26 06:59:13;;;;;;;;;63.50;51.25;;;;;4.10;63.71;102687.97;5056973;28;45429;-49
2022/01/26 07:01:41;;;;;;;;;66.25;52.50;;;;;4.08;64.07;102676.63;5056553;28;45566;-46
2022/01/26 07:04:07;;;;;;;;;59.75;47.75;;;;;4.07;63.88;102678.34;5056396;28;45440;-46
2022/01/26 07:06:33;;;;;;;;;57.50;48.25;;;;;4.07;64.02;102673.13;5056491;28;45530;-47
2022/01/26 07:08:59;;;;;;;;;63.25;48.25;;;;;4.16;63.92;102683.81;5057290;28;46369;-47
2022/01/26 07:11:24;;;;;;;;;66.75;52.50;;;;;4.16;63.98;102672.47;5056381;28;45428;-45
2022/01/26 07:13:52;;;;;;;;;65.75;51.50;;;;;4.17;64.12;102677.75;5056440;28;45525;-45
2022/01/26 07:21:45;;;;;;;;;62.00;51.50;;;;;4.20;63.72;102675.19;5076631;28;45455;-50
2022/01/26 07:24:11;;;;;;;;;65.50;51.75;;;;;4.25;64.72;102682.25;5076666;27;45467;-47
2022/01/26 07:26:37;;;;;;;;;64.25;51.75;;;;;4.19;64.10;102677.75;5076246;28;45632;-46
2022/01/26 07:29:08;;;;;;;;;64.50;52.00;;;;;4.09;64.48;102654.97;5075858;27;45486;-46
2022/01/26 07:31:35;;;;;;;;;65.25;52.75;;;;;4.21;64.57;102673.47;5076521;27;45400;-45
2022/01/26 07:34:01;;;;;;;;;58.75;46.75;;;;;4.22;64.08;102683.06;5069032;27;45439;-47
2022/01/26 07:36:26;;;;;;;;;66.25;52.00;;;;;4.21;63.61;102682.16;5056069;28;45602;-46
2022/01/26 07:38:54;;;;;;;;;65.75;52.00;;;;;4.20;64.06;102692.56;5072332;28;46052;-46
2022/01/26 07:41:20;;;;;;;;;65.00;52.50;;;;;4.22;63.99;102693.47;5076099;27;45486;-48
2022/01/26 07:43:45;;;;;;;;;62.50;48.00;;;;;4.21;64.58;102696.91;5068694;27;45768;-47
2022/01/26 07:46:11;;;;;;;;;61.50;48.50;;;;;4.20;64.39;102685.63;5055762;28;45342;-47
2022/01/26 07:48:37;;;;;;;;;66.00;48.00;;;;;4.18;64.45;102683.81;5055993;28;45415;-49
2022/01/26 07:51:03;;;;;;;;;54.25;45.50;;;;;4.23;64.12;102690.03;5063466;28;45381;-46
2022/01/26 07:53:29;;;;;;;;;61.00;48.25;;;;;4.19;64.36;102689.06;5076588;28;45409;-47
2022/01/26 07:55:56;;;;;;;;;70.75;57.50;;;;;4.24;63.84;102701.31;5076382;27;45384;-46
2022/01/26 07:58:21;;;;;;;;;65.50;54.50;;;;;4.23;63.39;102697.84;5076220;27;46241;-48
2022/01/26 08:00:47;;;;;;;;;69.00;54.25;;;;;4.22;63.88;102703.91;5074758;27;45562;-53
2022/01/26 08:03:13;;;;;;;;;62.25;52.00;;;;;4.21;63.79;102705.59;5068240;27;45530;-53
2022/01/26 08:05:39;;;;;;;;;66.25;53.50;;;;;4.18;63.57;102702.03;5071687;28;45754;-56
2022/01/26 08:08:04;;;;;;;;;65.75;53.50;;;;;4.20;63.39;102703.84;5073841;28;47176;-59
2022/01/26 08:10:30;;;;;;;;;65.75;52.25;;;;;4.21;63.87;102699.50;5075824;27;45474;-53
2022/01/26 08:12:55;;;;;;;;;66.25;50.25;;;;;4.22;64.79;102703.91;5075384;27;45566;-49
2022/01/26 08:15:21;;;;;;;;;63.75;51.25;;;;;4.19;64.45;102695.97;5074643;27;45421;-48
2022/01/26 08:17:46;;;;;;;;;63.00;49.75;;;;;4.23;64.74;102686.53;5075334;27;46405;-52
2022/01/26 08:20:11;;;;;;;;;61.25;49.50;;;;;4.26;63.73;102671.00;5075411;27;45565;-47
2022/01/26 08:22:38;;;;;;;;;63.75;50.25;;;;;4.33;63.72;102683.31;5075579;27;45441;-51
2022/01/26 08:25:04;;;;;;;;;58.75;47.00;;;;;4.39;64.20;102684.34;5079381;28;45512;-46
2022/01/26 08:27:37;;;;;;;;;64.00;53.25;;;;;4.40;63.52;102690.41;5079208;27;45396;-46
2022/01/26 08:30:08;;;;;;;;;66.75;52.00;;;;;4.39;63.69;102681.72;5079343;27;45536;-47
2022/01/26 08:32:34;;;;;;;;;60.75;49.50;;;;;4.40;64.41;102666.97;5079294;27;45522;-48
2022/01/26 08:34:59;;;;;;;;;70.25;57.75;;;;;4.42;63.77;102668.78;5079441;27;45511;-45
2022/01/26 08:37:24;;;;;;;;;64.25;51.50;;;;;4.48;63.82;102664.56;5079217;27;45588;-46
2022/01/26 08:39:50;;;;;;;;;62.75;51.75;;;;;4.43;63.13;102680.06;5079166;27;45539;-50
2022/01/26 08:42:15;;;;;;;;;62.00;50.00;;;;;4.43;63.78;102688.78;5079066;27;45396;-46
2022/01/26 08:44:40;;;;;;;;;65.75;49.50;;;;;4.43;63.42;102677.47;5078380;27;45521;-47
2022/01/26 08:47:06;;;;;;;;;64.00;51.50;;;;;4.43;63.19;102661.84;5078535;27;48059;-50
2022/01/26 08:49:32;;;;;;;;;65.00;51.00;;;;;4.41;63.29;102676.56;5078893;28;45440;-46
2022/01/26 08:51:58;;;;;;;;;64.75;50.75;;;;;4.40;63.65;102685.22;5078998;27;45393;-49
2022/01/26 08:54:24;;;;;;;;;65.25;50.25;;;;;4.42;63.62;102692.22;5079060;27;45578;-44
2022/01/26 08:56:50;;;;;;;;;64.00;53.25;;;;;4.37;63.28;102691.22;5078610;28;45498;-47
2022/01/26 08:59:21;;;;;;;;;71.50;56.75;;;;;4.42;64.39;102694.81;5078926;27;45352;-47
2022/01/26 09:01:47;;;;;;;;;67.00;53.25;;;;;4.42;64.06;102693.94;5078877;27;45418;-50
2022/01/26 09:04:13;;;;;;;;;66.25;51.75;;;;;4.43;63.58;102703.50;5079054;27;45460;-50
2022/01/26 09:06:50;;;;;;;;;63.50;51.00;;;;;4.45;63.54;102709.66;5078482;28;45473;-49
2022/01/26 09:09:20;;;;;;;;;64.50;52.75;;;;;4.39;63.56;102693.88;5077428;28;45378;-49
2022/01/26 09:11:47;;;;;;;;;64.50;50.00;;;;;4.45;63.55;102700.97;5078885;27;45552;-50
2022/01/26 09:14:17;;;;;;;;;66.00;49.75;;;;;4.51;63.10;102706.31;5078672;27;45398;-50
2022/01/26 09:16:43;;;;;;;;;61.00;51.50;;;;;4.55;63.19;102700.34;5078015;27;46572;-51
2022/01/26 09:19:20;;;;;;;;;66.50;51.75;;;;;4.55;63.23;102706.44;5078526;28;45446;-50
2022/01/26 09:21:45;;;;;;;;;66.25;54.00;;;;;4.53;63.20;102710.72;5078552;27;46028;-46
2022/01/26 09:24:11;;;;;;;;;67.00;53.00;;;;;4.57;62.88;102711.69;5078546;27;45449;-46
2022/01/26 09:26:36;;;;;;;;;67.75;54.75;;;;;4.66;62.75;102730.13;5078196;27;45611;-47
2022/01/26 09:29:02;;;;;;;;;67.00;53.50;;;;;4.65;63.04;102731.88;5078401;27;45510;-48
2022/01/26 09:31:27;;;;;;;;;63.00;51.00;;;;;4.63;62.84;102730.06;5078654;27;45388;-45
2022/01/26 09:33:53;;;;;;;;;68.75;54.00;;;;;4.65;63.55;102734.47;5078153;27;45474;-48
2022/01/26 09:36:18;;;;;;;;;64.50;51.75;;;;;4.69;63.20;102738.00;5078323;27;46566;-49
2022/01/26 09:38:43;;;;;;;;;63.25;51.00;;;;;4.70;63.40;102737.19;5078069;27;45335;-47
2022/01/26 09:41:09;;;;;;;;;58.25;49.75;;;;;4.73;63.23;102744.16;5077906;27;45349;-46
2022/01/26 09:43:34;;;;;;;;;64.50;51.25;;;;;4.72;63.24;102729.38;5078255;27;45290;-47
2022/01/26 09:46:00;;;;;;;;;65.00;49.00;;;;;4.73;63.50;102732.03;5077756;27;46446;-48
2022/01/26 09:48:25;;;;;;;;;59.75;47.75;;;;;4.68;63.50;102736.28;5078054;27;45480;-47
2022/01/26 09:50:55;;;;;;;;;62.75;50.75;;;;;4.69;63.61;102742.34;5076814;28;45790;-47
2022/01/26 09:53:26;;;;;;;;;60.50;51.00;;;;;4.70;63.84;102757.13;5076369;28;45583;-45
2022/01/26 09:55:52;;;;;;;;;68.50;51.75;;;;;4.71;63.22;102753.72;5077600;27;45709;-49
2022/01/26 09:58:20;;;;;;;;;69.50;53.25;;;;;4.73;63.89;102755.50;5077316;27;45445;-47
2022/01/26 10:00:45;;;;;;;;;68.50;52.75;;;;;4.75;63.75;102752.91;5076089;27;45465;-46
2022/01/26 10:03:11;;;;;;;;;68.75;56.00;;;;;4.69;63.32;102747.56;5076131;27;45589;-46
2022/01/26 10:05:44;;;;;;;;;66.00;53.50;;;;;4.75;63.84;102758.13;5076518;28;45534;-47
2022/01/26 10:18:38;;;;;;;;;64.25;50.50;;;;;4.81;63.03;102761.78;5077152;27;45498;-45
2022/01/26 10:21:08;;;;;;;;;70.25;55.50;;;;;4.83;63.16;102767.00;5076987;27;45421;-48
2022/01/26 10:23:40;;;;;;;;;65.25;50.00;;;;;4.83;63.62;102767.00;5077120;28;45388;-48
2022/01/26 10:26:12;;;;;;;;;59.50;49.25;;;;;4.83;63.28;102752.25;5076823;27;45582;-47
2022/01/26 10:28:44;;;;;;;;;63.75;53.50;;;;;4.84;62.77;102755.75;5076939;27;45477;-46
2022/01/26 10:31:15;;;;;;;;;61.00;49.50;;;;;4.81;63.38;102756.56;5076913;27;45377;-47
2022/01/26 10:34:02;;;;;;;;;57.25;46.00;;;;;4.80;63.37;102748.69;5076780;28;45743;-49
2022/01/26 10:36:38;;;;;;;;;56.50;45.25;;;;;4.89;63.54;102748.91;5076755;27;46214;-44
2022/01/26 10:39:19;;;;;;;;;49.75;43.50;;;;;4.92;63.12;102738.56;5076976;27;45465;-44
2022/01/26 10:41:45;;;;;;;;;55.75;45.25;;;;;4.95;63.75;102737.75;5076629;27;45451;-44
2022/01/26 10:44:10;;;;;;;;;47.50;41.75;;;;;4.95;63.46;102749.06;5076847;27;45460;-47
2022/01/26 10:46:42;;;;;;;;;54.50;44.50;;;;;4.87;63.97;102741.06;5076023;27;46260;-48
2022/01/26 10:54:23;;;;;;;;;51.25;44.50;;;;;4.96;64.61;102748.19;5076548;27;45457;-48
2022/01/26 10:56:50;;;;;;;;;60.50;45.50;;;;;4.97;64.83;102746.47;5074976;28;47414;-47
2022/01/26 10:59:16;;;;;;;;;51.25;44.25;;;;;4.93;64.40;102739.44;5076449;27;45540;-45
2022/01/26 11:01:41;;;;;;;;;52.00;45.25;;;;;4.86;64.61;102718.44;5075240;28;45386;-48
2022/01/26 11:04:08;;;;;;;;;56.00;47.75;;;;;5.05;64.36;102731.84;5075515;27;45674;-48
2022/01/26 11:06:34;;;;;;;;;62.75;47.25;;;;;5.02;64.82;102730.09;5075617;27;46437;-47
2022/01/26 11:09:07;;;;;;;;;62.50;47.00;;;;;5.05;64.50;102739.69;5076154;28;45365;-45
2022/01/26 11:11:33;;;;;;;;;54.25;46.75;;;;;5.04;65.29;102720.56;5075043;28;45623;-46
2022/01/26 11:13:58;;;;;;;;;57.75;46.50;;;;;5.08;65.28;102722.41;5075929;27;45390;-45
2022/01/26 11:16:24;;;;;;;;;60.75;49.50;;;;;5.08;64.66;102727.63;5075687;27;45565;-49
2022/01/26 11:18:53;;;;;;;;;56.75;47.00;;;;;5.10;64.87;102722.41;5076003;27;45546;-46
2022/01/26 11:21:30;;;;;;;;;55.75;46.75;;;;;5.07;64.73;102709.31;5075969;27;45554;-48
2022/01/26 11:24:19;;;;;;;;;58.50;46.50;;;;;5.08;64.70;102718.91;5075708;27;45603;-46
2022/01/26 11:26:46;;;;;;;;;54.00;44.75;;;;;5.07;64.78;102704.97;5075652;27;45539;-49
2022/01/26 11:29:22;;;;;;;;;59.50;43.00;;;;;5.11;64.67;102699.84;5075832;28;45543;-46
2022/01/26 11:32:02;;;;;;;;;50.75;43.00;;;;;5.01;65.17;102694.41;5076196;28;45381;-49
2022/01/26 11:34:29;;;;;;;;;56.50;47.50;;;;;5.03;65.33;102690.13;5075733;27;45366;-44
2022/01/26 11:36:58;;;;;;;;;57.25;46.50;;;;;5.08;64.75;102709.34;5075569;27;46252;-43
2022/01/26 11:42:21;;;;;;;;;58.25;46.00;;;;;5.18;65.21;102693.88;5075626;28;45416;-48
2022/01/26 11:45:07;;;;;;;;;54.25;42.25;;;;;4.98;64.67;102664.81;5075698;27;45503;-46
2022/01/26 11:47:34;;;;;;;;;50.00;43.75;;;;;5.13;65.16;102692.91;5075649;27;45414;-46
2022/01/26 11:50:07;;;;;;;;;56.50;48.25;;;;;5.16;65.07;102686.06;5075590;27;45445;-47
2022/01/26 11:52:40;;;;;;;;;59.00;47.00;;;;;5.22;65.27;102675.72;5075601;27;45483;-46
2022/01/26 11:55:36;;;;;;;;;57.75;46.00;;;;;5.25;64.74;102669.69;5075739;27;45386;-47
2022/01/26 11:58:16;;;;;;;;;59.00;47.75;;;;;5.27;64.90;102658.44;5074158;27;45528;-46
2022/01/26 12:01:09;;;;;;;;;54.25;45.75;;;;;5.27;64.95;102666.28;5068727;27;45412;-45
2022/01/26 12:03:42;;;;;;;;;57.00;46.75;;;;;5.32;64.84;102661.16;5053945;28;45504;-45
2022/01/26 12:06:14;;;;;;;;;60.25;47.25;;;;;5.28;64.77;102648.88;5070596;28;45533;-44
2022/01/26 12:08:39;;;;;;;;;58.00;47.25;;;;;5.36;64.35;102649.03;5052488;28;47994;-45
2022/01/26 12:11:14;;;;;;;;;40.50;37.50;;;;;5.29;64.94;102638.50;5054730;28;45385;-45
2022/01/26 12:13:40;;;;;;;;;52.25;42.00;;;;;5.33;64.78;102644.63;5054833;28;45320;-45
2022/01/26 12:16:15;;;;;;;;;56.50;43.00;;;;;5.36;65.03;102652.53;5053623;28;45410;-46
2022/01/26 12:18:57;;;;;;;;;52.75;44.00;;;;;5.35;64.20;102648.16;5052898;28;46488;-47
2022/01/26 12:35:09;;;;;;;;;47.00;38.75;;;;;5.32;64.51;102642.88;5075352;27;45459;-47
2022/01/26 12:37:51;;;;;;;;;43.00;38.00;;;;;5.36;64.95;102641.22;5075154;27;45412;-48
2022/01/26 12:43:15;;;;;;;;;73.50;56.50;;;;;5.34;64.36;102642.91;5074883;27;45478;-49
2022/01/26 12:45:40;;;;;;;;;74.25;60.00;;;;;5.38;63.88;102650.81;5074972;27;45361;-45
2022/01/26 12:48:11;;;;;;;;;76.00;58.75;;;;;5.35;64.34;102642.94;5072975;27;45390;-47
2022/01/26 12:50:39;;;;;;;;;71.25;55.50;;;;;5.41;63.86;102656.09;5074454;28;46248;-48
2022/01/26 12:53:05;;;;;;;;;57.25;43.00;;;;;5.34;64.48;102654.22;5074519;28;45452;-46
2022/01/26 12:55:34;;;;;;;;;45.25;40.50;;;;;5.24;64.35;102636.66;5074763;28;45381;-49
2022/01/26 12:58:01;;;;;;;;;45.50;38.25;;;;;5.35;64.92;102650.78;5074555;28;45372;-46
2022/01/26 13:00:37;;;;;;;;;49.75;42.25;;;;;5.32;64.87;102646.38;5074645;27;45441;-47
2022/01/26 13:03:09;;;;;;;;;49.50;42.75;;;;;5.31;65.03;102634.16;5074748;27;45456;-45
2022/01/26 13:05:34;;;;;;;;;50.50;42.75;;;;;5.36;64.30;102634.25;5074869;28;45471;-48
2022/01/26 13:08:05;;;;;;;;;53.75;42.00;;;;;5.39;64.63;102631.69;5074781;27;45441;-46
2022/01/26 13:10:32;;;;;;;;;57.75;48.00;;;;;5.39;64.74;102629.09;5077189;27;45484;-46
2022/01/26 13:13:12;;;;;;;;;53.75;43.50;;;;;5.39;64.86;102628.22;5077941;27;45482;-46
2022/01/26 13:15:47;;;;;;;;;51.00;43.00;;;;;5.43;64.75;102628.31;5078157;27;45407;-48
2022/01/26 13:18:26;;;;;;;;;61.50;45.75;;;;;5.45;64.83;102618.75;5078131;27;45327;-48
2022/01/26 13:21:29;;;;;;;;;61.00;48.00;;;;;5.46;64.63;102615.31;5075943;28;45817;-46
2022/01/26 13:24:31;;;;;;;;;63.50;50.25;;;;;5.49;64.58;102622.31;5077633;27;45405;-48
2022/01/26 13:27:22;;;;;;;;;70.75;58.75;;;;;5.43;64.11;102612.66;5073716;28;45579;-45
2022/01/26 13:40:11;;;;;;;;;60.25;43.25;;;;;5.44;64.34;102622.22;5077849;27;45420;-47
2022/01/26 13:43:13;;;;;;;;;57.50;43.75;;;;;5.31;64.89;102612.41;5077821;27;46731;-45
2022/01/26 13:55:37;;;;;;;;;66.00;50.75;;;;;5.20;65.61;102612.22;5077548;27;45509;-45